sensor_id;sensor_type;location;lat;lon;timestamp;temperature;humidity
17307;DHT22;8771;48.048;7.682;2023-05-29T00:04:39;18.50;59.60
17307;DHT22;8771;48.048;7.682;2023-05-29T00:09:43;18.30;59.70
17307;DHT22;8771;48.048;7.682;2023-05-29T00:14:44;18.20;59.80
17307;DHT22;8771;48.048;7.682;2023-05-29T00:19:46;18.10;59.80
17307;DHT22;8771;48.048;7.682;2023-05-29T00:24:49;17.90;60.70
17307;DHT22;8771;48.048;7.682;2023-05-29T00:29:51;17.80;60.00
17307;DHT22;8771;48.048;7.682;2023-05-29T00:34:53;17.80;60.00
17307;DHT22;8771;48.048;7.682;2023-05-29T00:39:57;17.70;60.20
17307;DHT22;8771;48.048;7.682;2023-05-29T00:44:59;17.60;60.10
17307;DHT22;8771;48.048;7.682;2023-05-29T00:50:01;17.60;60.20
17307;DHT22;8771;48.048;7.682;2023-05-29T00:55:07;17.50;60.20
17307;DHT22;8771;48.048;7.682;2023-05-29T01:00:10;17.40;60.30
17307;DHT22;8771;48.048;7.682;2023-05-29T01:05:14;17.30;60.30
17307;DHT22;8771;48.048;7.682;2023-05-29T01:10:18;17.30;60.30
17307;DHT22;8771;48.048;7.682;2023-05-29T01:15:31;17.20;60.10
17307;DHT22;8771;48.048;7.682;2023-05-29T01:20:40;17.20;60.20
17307;DHT22;8771;48.048;7.682;2023-05-29T01:25:58;17.10;60.30
17307;DHT22;8771;48.048;7.682;2023-05-29T01:31:10;17.10;60.40
17307;DHT22;8771;48.048;7.682;2023-05-29T01:36:12;16.90;60.40
17307;DHT22;8771;48.048;7.682;2023-05-29T01:41:15;16.80;60.60
17307;DHT22;8771;48.048;7.682;2023-05-29T01:46:20;16.60;60.70
17307;DHT22;8771;48.048;7.682;2023-05-29T01:51:22;16.60;60.80
17307;DHT22;8771;48.048;7.682;2023-05-29T01:56:24;16.50;60.90
17307;DHT22;8771;48.048;7.682;2023-05-29T02:01:29;16.50;60.80
17307;DHT22;8771;48.048;7.682;2023-05-29T02:06:31;16.50;60.80
17307;DHT22;8771;48.048;7.682;2023-05-29T02:11:33;16.40;60.80
17307;DHT22;8771;48.048;7.682;2023-05-29T02:16:37;16.30;60.90
17307;DHT22;8771;48.048;7.682;2023-05-29T02:21:41;16.30;60.90
17307;DHT22;8771;48.048;7.682;2023-05-29T02:26:43;16.20;60.90
17307;DHT22;8771;48.048;7.682;2023-05-29T02:31:47;16.20;60.90
17307;DHT22;8771;48.048;7.682;2023-05-29T02:36:48;16.10;60.90
17307;DHT22;8771;48.048;7.682;2023-05-29T02:41:52;16.10;61.10
17307;DHT22;8771;48.048;7.682;2023-05-29T02:46:55;16.00;61.20
17307;DHT22;8771;48.048;7.682;2023-05-29T02:51:59;15.90;61.20
17307;DHT22;8771;48.048;7.682;2023-05-29T02:57:01;15.80;61.40
17307;DHT22;8771;48.048;7.682;2023-05-29T03:02:04;15.70;61.40
17307;DHT22;8771;48.048;7.682;2023-05-29T03:07:06;15.70;61.60
17307;DHT22;8771;48.048;7.682;2023-05-29T03:12:10;15.60;61.60
17307;DHT22;8771;48.048;7.682;2023-05-29T03:17:13;15.60;61.60
17307;DHT22;8771;48.048;7.682;2023-05-29T03:22:15;15.60;61.60
17307;DHT22;8771;48.048;7.682;2023-05-29T03:27:17;15.50;61.60
17307;DHT22;8771;48.048;7.682;2023-05-29T03:32:20;15.50;61.60
17307;DHT22;8771;48.048;7.682;2023-05-29T03:37:22;15.40;61.60
17307;DHT22;8771;48.048;7.682;2023-05-29T03:42:24;15.40;61.80
17307;DHT22;8771;48.048;7.682;2023-05-29T03:47:27;15.30;61.80
17307;DHT22;8771;48.048;7.682;2023-05-29T03:52:29;15.30;61.80
17307;DHT22;8771;48.048;7.682;2023-05-29T03:57:31;15.30;61.80
17307;DHT22;8771;48.048;7.682;2023-05-29T04:02:35;15.30;61.70
17307;DHT22;8771;48.048;7.682;2023-05-29T04:07:37;15.40;61.60
17307;DHT22;8771;48.048;7.682;2023-05-29T04:12:39;15.40;61.60
17307;DHT22;8771;48.048;7.682;2023-05-29T04:17:42;15.40;61.60
17307;DHT22;8771;48.048;7.682;2023-05-29T04:22:44;15.40;61.60
17307;DHT22;8771;48.048;7.682;2023-05-29T04:27:46;15.40;61.60
17307;DHT22;8771;48.048;7.682;2023-05-29T04:32:50;15.40;61.50
17307;DHT22;8771;48.048;7.682;2023-05-29T04:37:52;15.40;61.50
17307;DHT22;8771;48.048;7.682;2023-05-29T04:42:54;15.50;61.40
17307;DHT22;8771;48.048;7.682;2023-05-29T04:47:57;15.50;61.30
17307;DHT22;8771;48.048;7.682;2023-05-29T04:53:01;15.60;61.40
17307;DHT22;8771;48.048;7.682;2023-05-29T04:58:03;15.70;61.20
17307;DHT22;8771;48.048;7.682;2023-05-29T05:03:06;15.90;61.00
17307;DHT22;8771;48.048;7.682;2023-05-29T05:08:10;16.20;60.80
17307;DHT22;8771;48.048;7.682;2023-05-29T05:13:13;16.40;60.50
17307;DHT22;8771;48.048;7.682;2023-05-29T05:18:16;16.70;60.30
17307;DHT22;8771;48.048;7.682;2023-05-29T05:23:18;16.90;60.00
17307;DHT22;8771;48.048;7.682;2023-05-29T05:28:20;17.30;59.70
17307;DHT22;8771;48.048;7.682;2023-05-29T05:33:23;17.70;59.40
17307;DHT22;8771;48.048;7.682;2023-05-29T05:38:25;18.10;59.10
17307;DHT22;8771;48.048;7.682;2023-05-29T05:43:27;18.50;58.90
17307;DHT22;8771;48.048;7.682;2023-05-29T05:48:31;18.80;58.60
17307;DHT22;8771;48.048;7.682;2023-05-29T05:53:32;19.10;58.50
17307;DHT22;8771;48.048;7.682;2023-05-29T05:58:35;19.40;58.30
17307;DHT22;8771;48.048;7.682;2023-05-29T06:03:41;19.60;58.20
17307;DHT22;8771;48.048;7.682;2023-05-29T06:08:43;19.90;57.70
17307;DHT22;8771;48.048;7.682;2023-05-29T06:13:46;20.10;58.00
17307;DHT22;8771;48.048;7.682;2023-05-29T06:18:49;20.40;57.80
17307;DHT22;8771;48.048;7.682;2023-05-29T06:23:51;20.70;57.70
17307;DHT22;8771;48.048;7.682;2023-05-29T06:28:53;21.00;57.60
17307;DHT22;8771;48.048;7.682;2023-05-29T06:33:59;21.40;58.10
17307;DHT22;8771;48.048;7.682;2023-05-29T06:39:01;21.70;57.30
17307;DHT22;8771;48.048;7.682;2023-05-29T06:44:03;22.00;57.20
17307;DHT22;8771;48.048;7.682;2023-05-29T06:49:06;22.30;57.00
17307;DHT22;8771;48.048;7.682;2023-05-29T06:54:08;22.60;56.90
17307;DHT22;8771;48.048;7.682;2023-05-29T06:59:10;22.90;56.80
17307;DHT22;8771;48.048;7.682;2023-05-29T07:04:14;23.10;56.60
17307;DHT22;8771;48.048;7.682;2023-05-29T07:09:16;23.30;56.60
17307;DHT22;8771;48.048;7.682;2023-05-29T07:14:18;23.60;56.50
17307;DHT22;8771;48.048;7.682;2023-05-29T07:19:21;23.80;56.40
17307;DHT22;8771;48.048;7.682;2023-05-29T07:24:23;24.00;56.30
17307;DHT22;8771;48.048;7.682;2023-05-29T07:29:26;24.30;56.30
17307;DHT22;8771;48.048;7.682;2023-05-29T07:34:29;24.50;56.20
17307;DHT22;8771;48.048;7.682;2023-05-29T07:39:32;24.70;56.10
17307;DHT22;8771;48.048;7.682;2023-05-29T07:44:34;25.00;56.10
17307;DHT22;8771;48.048;7.682;2023-05-29T07:49:37;25.20;55.90
17307;DHT22;8771;48.048;7.682;2023-05-29T07:54:39;25.30;55.90
17307;DHT22;8771;48.048;7.682;2023-05-29T07:59:41;25.30;55.90
17307;DHT22;8771;48.048;7.682;2023-05-29T08:04:45;25.10;56.20
17307;DHT22;8771;48.048;7.682;2023-05-29T08:09:47;24.70;56.50
17307;DHT22;8771;48.048;7.682;2023-05-29T08:14:49;24.30;56.80
17307;DHT22;8771;48.048;7.682;2023-05-29T08:19:53;24.00;57.10
17307;DHT22;8771;48.048;7.682;2023-05-29T08:24:55;23.90;57.20
17307;DHT22;8771;48.048;7.682;2023-05-29T08:29:57;23.80;57.20
17307;DHT22;8771;48.048;7.682;2023-05-29T08:35:00;23.60;57.20
17307;DHT22;8771;48.048;7.682;2023-05-29T08:40:03;23.30;57.20
17307;DHT22;8771;48.048;7.682;2023-05-29T08:45:13;23.20;57.30
17307;DHT22;8771;48.048;7.682;2023-05-29T08:50:17;23.10;57.20
17307;DHT22;8771;48.048;7.682;2023-05-29T08:55:20;23.10;57.20
17307;DHT22;8771;48.048;7.682;2023-05-29T09:00:23;23.10;57.00
17307;DHT22;8771;48.048;7.682;2023-05-29T09:05:30;23.20;56.90
17307;DHT22;8771;48.048;7.682;2023-05-29T09:10:33;23.30;56.70
17307;DHT22;8771;48.048;7.682;2023-05-29T09:15:35;23.40;56.60
17307;DHT22;8771;48.048;7.682;2023-05-29T09:20:40;23.50;56.50
17307;DHT22;8771;48.048;7.682;2023-05-29T09:25:42;23.80;56.30
17307;DHT22;8771;48.048;7.682;2023-05-29T09:30:45;24.00;56.20
17307;DHT22;8771;48.048;7.682;2023-05-29T09:35:49;24.20;56.00
17307;DHT22;8771;48.048;7.682;2023-05-29T09:40:51;24.20;55.90
17307;DHT22;8771;48.048;7.682;2023-05-29T09:45:56;24.30;56.00
17307;DHT22;8771;48.048;7.682;2023-05-29T09:51:02;24.30;55.90
17307;DHT22;8771;48.048;7.682;2023-05-29T09:56:05;24.40;55.90
17307;DHT22;8771;48.048;7.682;2023-05-29T10:01:08;24.40;55.80
17307;DHT22;8771;48.048;7.682;2023-05-29T10:06:15;24.50;55.70
17307;DHT22;8771;48.048;7.682;2023-05-29T10:11:21;24.40;55.80
17307;DHT22;8771;48.048;7.682;2023-05-29T10:16:26;24.40;55.80
17307;DHT22;8771;48.048;7.682;2023-05-29T10:21:30;24.50;55.70
17307;DHT22;8771;48.048;7.682;2023-05-29T10:26:36;24.60;55.60
17307;DHT22;8771;48.048;7.682;2023-05-29T10:31:46;24.60;55.50
17307;DHT22;8771;48.048;7.682;2023-05-29T10:36:56;24.70;55.50
17307;DHT22;8771;48.048;7.682;2023-05-29T10:42:01;24.80;55.50
17307;DHT22;8771;48.048;7.682;2023-05-29T10:47:06;24.90;55.30
17307;DHT22;8771;48.048;7.682;2023-05-29T10:52:11;25.00;55.30
17307;DHT22;8771;48.048;7.682;2023-05-29T10:57:13;25.20;55.10
17307;DHT22;8771;48.048;7.682;2023-05-29T11:02:18;25.30;55.00
17307;DHT22;8771;48.048;7.682;2023-05-29T11:07:35;25.50;55.00
17307;DHT22;8771;48.048;7.682;2023-05-29T11:12:56;25.70;54.90
17307;DHT22;8771;48.048;7.682;2023-05-29T11:18:06;25.80;54.70
17307;DHT22;8771;48.048;7.682;2023-05-29T11:23:14;25.80;54.70
17307;DHT22;8771;48.048;7.682;2023-05-29T11:28:18;25.90;54.70
17307;DHT22;8771;48.048;7.682;2023-05-29T11:33:24;25.90;54.70
17307;DHT22;8771;48.048;7.682;2023-05-29T11:38:28;25.90;54.70
17307;DHT22;8771;48.048;7.682;2023-05-29T11:43:32;25.90;54.70
17307;DHT22;8771;48.048;7.682;2023-05-29T11:48:34;25.90;54.70
17307;DHT22;8771;48.048;7.682;2023-05-29T11:53:48;26.00;54.70
17307;DHT22;8771;48.048;7.682;2023-05-29T11:58:50;26.10;54.60
17307;DHT22;8771;48.048;7.682;2023-05-29T12:03:55;26.30;54.50
17307;DHT22;8771;48.048;7.682;2023-05-29T12:08:59;26.30;54.40
17307;DHT22;8771;48.048;7.682;2023-05-29T12:14:02;26.40;54.40
17307;DHT22;8771;48.048;7.682;2023-05-29T12:19:04;26.50;54.30
17307;DHT22;8771;48.048;7.682;2023-05-29T12:24:07;26.70;54.30
17307;DHT22;8771;48.048;7.682;2023-05-29T12:29:09;26.80;54.20
17307;DHT22;8771;48.048;7.682;2023-05-29T12:34:12;26.80;54.10
17307;DHT22;8771;48.048;7.682;2023-05-29T12:39:16;26.80;54.20
17307;DHT22;8771;48.048;7.682;2023-05-29T12:44:18;26.90;54.20
17307;DHT22;8771;48.048;7.682;2023-05-29T12:49:20;27.00;54.10
17307;DHT22;8771;48.048;7.682;2023-05-29T12:54:27;27.00;54.00
17307;DHT22;8771;48.048;7.682;2023-05-29T12:59:29;27.00;54.10
17307;DHT22;8771;48.048;7.682;2023-05-29T13:04:31;27.00;54.10
17307;DHT22;8771;48.048;7.682;2023-05-29T13:09:34;27.10;54.00
17307;DHT22;8771;48.048;7.682;2023-05-29T13:14:36;27.20;54.10
17307;DHT22;8771;48.048;7.682;2023-05-29T13:19:38;27.20;54.10
17307;DHT22;8771;48.048;7.682;2023-05-29T13:24:41;27.30;54.00
17307;DHT22;8771;48.048;7.682;2023-05-29T13:29:43;27.40;54.00
17307;DHT22;8771;48.048;7.682;2023-05-29T13:34:46;27.50;54.00
17307;DHT22;8771;48.048;7.682;2023-05-29T13:39:49;27.50;53.90
17307;DHT22;8771;48.048;7.682;2023-05-29T13:44:53;27.60;53.90
17307;DHT22;8771;48.048;7.682;2023-05-29T13:49:55;27.60;53.80
17307;DHT22;8771;48.048;7.682;2023-05-29T13:54:58;27.40;53.90
17307;DHT22;8771;48.048;7.682;2023-05-29T14:00:07;27.40;54.00
17307;DHT22;8771;48.048;7.682;2023-05-29T14:05:09;27.50;54.00
17307;DHT22;8771;48.048;7.682;2023-05-29T14:10:13;27.60;53.90
17307;DHT22;8771;48.048;7.682;2023-05-29T14:15:16;27.50;53.90
17307;DHT22;8771;48.048;7.682;2023-05-29T14:20:18;27.60;53.80
17307;DHT22;8771;48.048;7.682;2023-05-29T14:25:21;27.60;53.80
17307;DHT22;8771;48.048;7.682;2023-05-29T14:30:23;27.50;53.80
17307;DHT22;8771;48.048;7.682;2023-05-29T14:35:26;27.60;53.80
17307;DHT22;8771;48.048;7.682;2023-05-29T14:40:30;27.70;53.70
17307;DHT22;8771;48.048;7.682;2023-05-29T14:45:34;27.80;53.70
17307;DHT22;8771;48.048;7.682;2023-05-29T14:50:36;27.70;53.60
17307;DHT22;8771;48.048;7.682;2023-05-29T14:55:39;27.70;53.70
17307;DHT22;8771;48.048;7.682;2023-05-29T15:00:41;27.70;53.70
17307;DHT22;8771;48.048;7.682;2023-05-29T15:05:43;27.70;53.70
17307;DHT22;8771;48.048;7.682;2023-05-29T15:10:46;27.80;53.60
17307;DHT22;8771;48.048;7.682;2023-05-29T15:15:50;27.90;53.50
17307;DHT22;8771;48.048;7.682;2023-05-29T15:20:52;28.00;53.50
17307;DHT22;8771;48.048;7.682;2023-05-29T15:25:59;28.10;53.50
17307;DHT22;8771;48.048;7.682;2023-05-29T15:31:01;28.10;53.40
17307;DHT22;8771;48.048;7.682;2023-05-29T15:36:04;28.00;53.40
17307;DHT22;8771;48.048;7.682;2023-05-29T15:41:07;27.90;53.50
17307;DHT22;8771;48.048;7.682;2023-05-29T15:46:10;27.90;53.50
17307;DHT22;8771;48.048;7.682;2023-05-29T15:51:12;28.00;53.40
17307;DHT22;8771;48.048;7.682;2023-05-29T15:56:16;28.10;53.40
17307;DHT22;8771;48.048;7.682;2023-05-29T16:01:17;28.00;53.40
17307;DHT22;8771;48.048;7.682;2023-05-29T16:06:20;27.80;53.50
17307;DHT22;8771;48.048;7.682;2023-05-29T16:11:24;27.80;53.50
17307;DHT22;8771;48.048;7.682;2023-05-29T16:16:26;27.90;53.40
17307;DHT22;8771;48.048;7.682;2023-05-29T16:21:30;27.90;53.30
17307;DHT22;8771;48.048;7.682;2023-05-29T16:26:34;27.90;53.40
17307;DHT22;8771;48.048;7.682;2023-05-29T16:31:36;27.70;53.50
17307;DHT22;8771;48.048;7.682;2023-05-29T16:36:40;27.50;53.60
17307;DHT22;8771;48.048;7.682;2023-05-29T16:41:43;27.40;53.70
17307;DHT22;8771;48.048;7.682;2023-05-29T16:46:45;27.30;53.70
17307;DHT22;8771;48.048;7.682;2023-05-29T16:51:47;27.20;53.60
17307;DHT22;8771;48.048;7.682;2023-05-29T16:56:50;27.10;53.70
17307;DHT22;8771;48.048;7.682;2023-05-29T17:01:52;27.00;53.70
17307;DHT22;8771;48.048;7.682;2023-05-29T17:06:54;27.00;53.70
17307;DHT22;8771;48.048;7.682;2023-05-29T17:11:57;26.90;53.70
17307;DHT22;8771;48.048;7.682;2023-05-29T17:16:59;26.80;53.70
17307;DHT22;8771;48.048;7.682;2023-05-29T17:22:01;26.80;53.80
17307;DHT22;8771;48.048;7.682;2023-05-29T17:27:05;26.70;53.70
17307;DHT22;8771;48.048;7.682;2023-05-29T17:32:07;26.60;53.70
17307;DHT22;8771;48.048;7.682;2023-05-29T17:37:10;26.50;53.70
17307;DHT22;8771;48.048;7.682;2023-05-29T17:42:13;26.40;53.70
17307;DHT22;8771;48.048;7.682;2023-05-29T17:47:16;26.30;53.70
17307;DHT22;8771;48.048;7.682;2023-05-29T17:52:18;26.20;53.80
17307;DHT22;8771;48.048;7.682;2023-05-29T17:57:21;26.20;53.80
17307;DHT22;8771;48.048;7.682;2023-05-29T18:02:23;26.10;53.80
17307;DHT22;8771;48.048;7.682;2023-05-29T18:07:28;25.90;53.70
17307;DHT22;8771;48.048;7.682;2023-05-29T18:12:31;25.90;53.80
17307;DHT22;8771;48.048;7.682;2023-05-29T18:17:33;25.70;53.80
17307;DHT22;8771;48.048;7.682;2023-05-29T18:22:35;25.70;54.00
17307;DHT22;8771;48.048;7.682;2023-05-29T18:27:38;25.60;54.00
17307;DHT22;8771;48.048;7.682;2023-05-29T18:32:41;25.50;54.10
17307;DHT22;8771;48.048;7.682;2023-05-29T18:37:43;25.40;54.10
17307;DHT22;8771;48.048;7.682;2023-05-29T18:42:46;25.30;54.20
17307;DHT22;8771;48.048;7.682;2023-05-29T18:47:48;25.10;54.30
17307;DHT22;8771;48.048;7.682;2023-05-29T18:52:50;25.00;54.40
17307;DHT22;8771;48.048;7.682;2023-05-29T18:57:53;24.90;54.40
17307;DHT22;8771;48.048;7.682;2023-05-29T19:02:55;24.80;54.50
17307;DHT22;8771;48.048;7.682;2023-05-29T19:07:57;24.60;54.60
17307;DHT22;8771;48.048;7.682;2023-05-29T19:13:02;24.50;54.60
17307;DHT22;8771;48.048;7.682;2023-05-29T19:18:04;24.40;54.70
17307;DHT22;8771;48.048;7.682;2023-05-29T19:23:07;24.30;54.70
17307;DHT22;8771;48.048;7.682;2023-05-29T19:28:10;24.20;54.80
17307;DHT22;8771;48.048;7.682;2023-05-29T19:33:12;24.10;54.90
17307;DHT22;8771;48.048;7.682;2023-05-29T19:38:14;24.00;54.90
17307;DHT22;8771;48.048;7.682;2023-05-29T19:43:17;23.90;54.90
17307;DHT22;8771;48.048;7.682;2023-05-29T19:48:19;23.70;55.00
17307;DHT22;8771;48.048;7.682;2023-05-29T19:53:22;23.60;55.10
17307;DHT22;8771;48.048;7.682;2023-05-29T19:58:25;23.50;55.10
17307;DHT22;8771;48.048;7.682;2023-05-29T20:03:27;23.40;55.10
17307;DHT22;8771;48.048;7.682;2023-05-29T20:08:32;23.40;55.10
17307;DHT22;8771;48.048;7.682;2023-05-29T20:13:37;23.40;55.10
17307;DHT22;8771;48.048;7.682;2023-05-29T20:18:39;23.30;55.00
17307;DHT22;8771;48.048;7.682;2023-05-29T20:23:41;23.30;55.00
17307;DHT22;8771;48.048;7.682;2023-05-29T20:28:44;23.20;55.00
17307;DHT22;8771;48.048;7.682;2023-05-29T20:33:46;23.20;55.00
17307;DHT22;8771;48.048;7.682;2023-05-29T20:38:48;23.10;55.00
17307;DHT22;8771;48.048;7.682;2023-05-29T20:43:51;23.10;55.00
17307;DHT22;8771;48.048;7.682;2023-05-29T20:48:54;23.10;54.90
17307;DHT22;8771;48.048;7.682;2023-05-29T20:53:56;23.00;54.90
17307;DHT22;8771;48.048;7.682;2023-05-29T20:58:59;22.90;55.00
17307;DHT22;8771;48.048;7.682;2023-05-29T21:04:01;22.80;55.10
17307;DHT22;8771;48.048;7.682;2023-05-29T21:09:03;22.80;55.00
17307;DHT22;8771;48.048;7.682;2023-05-29T21:14:07;22.70;55.10
17307;DHT22;8771;48.048;7.682;2023-05-29T21:19:09;22.60;55.00
17307;DHT22;8771;48.048;7.682;2023-05-29T21:24:12;22.60;55.10
17307;DHT22;8771;48.048;7.682;2023-05-29T21:29:15;22.50;55.10
17307;DHT22;8771;48.048;7.682;2023-05-29T21:34:17;22.50;55.10
17307;DHT22;8771;48.048;7.682;2023-05-29T21:39:19;22.50;55.00
17307;DHT22;8771;48.048;7.682;2023-05-29T21:44:23;22.50;54.90
17307;DHT22;8771;48.048;7.682;2023-05-29T21:49:26;22.50;54.90
17307;DHT22;8771;48.048;7.682;2023-05-29T21:54:28;22.50;55.40
17307;DHT22;8771;48.048;7.682;2023-05-29T21:59:32;22.50;54.80
17307;DHT22;8771;48.048;7.682;2023-05-29T22:04:34;22.50;54.70
17307;DHT22;8771;48.048;7.682;2023-05-29T22:09:36;22.50;54.70
17307;DHT22;8771;48.048;7.682;2023-05-29T22:14:39;22.50;54.80
17307;DHT22;8771;48.048;7.682;2023-05-29T22:19:41;22.40;54.70
17307;DHT22;8771;48.048;7.682;2023-05-29T22:24:43;22.40;54.80
17307;DHT22;8771;48.048;7.682;2023-05-29T22:29:46;22.30;54.70
17307;DHT22;8771;48.048;7.682;2023-05-29T22:34:48;22.30;54.80
17307;DHT22;8771;48.048;7.682;2023-05-29T22:39:50;22.20;54.80
17307;DHT22;8771;48.048;7.682;2023-05-29T22:44:54;22.10;54.80
17307;DHT22;8771;48.048;7.682;2023-05-29T22:49:56;22.00;54.80
17307;DHT22;8771;48.048;7.682;2023-05-29T22:54:58;22.00;55.00
17307;DHT22;8771;48.048;7.682;2023-05-29T23:00:02;21.90;55.00
17307;DHT22;8771;48.048;7.682;2023-05-29T23:05:09;21.80;55.00
17307;DHT22;8771;48.048;7.682;2023-05-29T23:10:12;21.80;55.00
17307;DHT22;8771;48.048;7.682;2023-05-29T23:15:15;21.80;55.00
17307;DHT22;8771;48.048;7.682;2023-05-29T23:20:18;21.70;54.90
17307;DHT22;8771;48.048;7.682;2023-05-29T23:25:20;21.70;54.90
17307;DHT22;8771;48.048;7.682;2023-05-29T23:30:23;21.70;54.80
17307;DHT22;8771;48.048;7.682;2023-05-29T23:35:25;21.60;54.80
17307;DHT22;8771;48.048;7.682;2023-05-29T23:40:27;21.50;54.80
17307;DHT22;8771;48.048;7.682;2023-05-29T23:45:31;21.60;54.90
17307;DHT22;8771;48.048;7.682;2023-05-29T23:50:33;21.50;54.80
17307;DHT22;8771;48.048;7.682;2023-05-29T23:55:35;21.50;54.80
